UPS29D OKKK-OMDB
Flight info
| Callsign | UPS29D |
|---|---|
| Flight time | N/A |
| Altitude | 35000 |
| Route | BOXIK B416 AMBIK DCT ORGEL DCT GETAL DCT SODAK DCT ROSAN DCT ASPAK DCT UKUBU DCT TOMSO DCT SOKAK DCT KIVUS DCT DATOB |
| Aircraft | B744/H-SDE3FGHIM1M2RWXY/LB1 |
Departure
| Time | 2026-05-08 18:47 |
|---|---|
| Airport | Kuwait International Airport (OKKK) |
Arrival
| Time | N/A |
|---|---|
| Airport | Dubai International Airport (OMDB) |
| Time | Latitude | Longitude | Altitude | Speed | Heading |
|---|---|---|---|---|---|
| 2026-05-08 18:46 | 29.21239 | 47.97792 | 180 ft | 3 kts | 267° |
| 2026-05-08 18:46 | 29.21245 | 47.97758 | 180 ft | 11 kts | 289° |
| 2026-05-08 18:46 | 29.21323 | 47.97623 | 180 ft | 30 kts | 315° |
| 2026-05-08 18:46 | 29.21569 | 47.97474 | 177 ft | 57 kts | 334° |
| 2026-05-08 18:47 | 29.22332 | 47.97072 | 176 ft | 180 kts | 337° |
| 2026-05-08 18:47 | 29.23660 | 47.96337 | 507 ft | 229 kts | 334° |
| 2026-05-08 18:47 | 29.24975 | 47.95535 | 1243 ft | 201 kts | 333° |
| 2026-05-08 18:47 | 29.26228 | 47.94781 | 1977 ft | 210 kts | 334° |
| 2026-05-08 18:48 | 29.27533 | 47.94036 | 2865 ft | 215 kts | 334° |
| 2026-05-08 18:48 | 29.28899 | 47.93238 | 3670 ft | 224 kts | 336° |
| 2026-05-08 18:48 | 29.30468 | 47.92843 | 4393 ft | 244 kts | 357° |
| 2026-05-08 18:48 | 29.31667 | 47.92962 | 4795 ft | 270 kts | 11° |
| 2026-05-08 18:49 | 29.34078 | 47.94225 | 5998 ft | 299 kts | 33° |
| 2026-05-08 18:49 | 29.35180 | 47.95235 | 6911 ft | 303 kts | 42° |
| 2026-05-08 18:49 | 29.36518 | 47.97106 | 8385 ft | 297 kts | 55° |
| 2026-05-08 18:49 | 29.37507 | 47.99992 | 10191 ft | 305 kts | 84° |
| 2026-05-08 18:50 | 29.37291 | 48.02468 | 10953 ft | 324 kts | 110° |
| 2026-05-08 18:50 | 29.36625 | 48.04066 | 11511 ft | 335 kts | 126° |
| 2026-05-08 18:50 | 29.34978 | 48.06026 | 12382 ft | 351 kts | 146° |
| 2026-05-08 18:50 | 29.32880 | 48.07539 | 13264 ft | 371 kts | 152° |
| 2026-05-08 18:51 | 29.30609 | 48.09116 | 14151 ft | 393 kts | 149° |
| 2026-05-08 18:51 | 29.28309 | 48.10974 | 14987 ft | 417 kts | 144° |
| 2026-05-08 18:51 | 29.26120 | 48.13256 | 16012 ft | 435 kts | 134° |
| 2026-05-08 18:51 | 29.24199 | 48.16000 | 17184 ft | 448 kts | 128° |
| 2026-05-08 18:52 | 29.22399 | 48.18967 | 18349 ft | 459 kts | 126° |
| 2026-05-08 18:52 | 29.20554 | 48.21980 | 19390 ft | 466 kts | 130° |
| 2026-05-08 18:52 | 29.18507 | 48.24874 | 20502 ft | 470 kts | 135° |
| 2026-05-08 18:52 | 29.16368 | 48.27738 | 21604 ft | 477 kts | 135° |
| 2026-05-08 18:53 | 29.14279 | 48.30727 | 22693 ft | 484 kts | 133° |
| 2026-05-08 18:53 | 29.12229 | 48.33800 | 23769 ft | 488 kts | 133° |
| 2026-05-08 18:53 | 29.10128 | 48.36855 | 24678 ft | 490 kts | 135° |
| 2026-05-08 18:53 | 29.07961 | 48.39898 | 25530 ft | 495 kts | 135° |
| 2026-05-08 18:54 | 29.05846 | 48.42902 | 26752 ft | 489 kts | 135° |
| 2026-05-08 18:54 | 29.03753 | 48.45938 | 27988 ft | 484 kts | 135° |
| 2026-05-08 18:54 | 29.01688 | 48.48917 | 28620 ft | 490 kts | 134° |
| 2026-05-08 18:54 | 28.99570 | 48.51931 | 29842 ft | 483 kts | 136° |
| 2026-05-08 18:55 | 28.95408 | 48.57875 | 31809 ft | 476 kts | 138° |
| 2026-05-08 18:55 | 28.93352 | 48.60820 | 32727 ft | 473 kts | 139° |
| 2026-05-08 18:55 | 28.91303 | 48.63742 | 33635 ft | 471 kts | 140° |
| 2026-05-08 18:56 | 28.89256 | 48.66655 | 34398 ft | 470 kts | 141° |
| 2026-05-08 18:56 | 28.87208 | 48.69568 | 34810 ft | 470 kts | 141° |
| 2026-05-08 18:56 | 28.85164 | 48.72483 | 34901 ft | 470 kts | 140° |
| 2026-05-08 18:57 | 28.81096 | 48.78295 | 34914 ft | 470 kts | 138° |
| 2026-05-08 18:57 | 28.79306 | 48.81477 | 34923 ft | 482 kts | 131° |
| 2026-05-08 18:57 | 28.77675 | 48.84818 | 34915 ft | 482 kts | 130° |
| 2026-05-08 18:58 | 28.74414 | 48.91471 | 34916 ft | 481 kts | 130° |
| 2026-05-08 18:58 | 28.71149 | 48.98118 | 34918 ft | 478 kts | 130° |
| 2026-05-08 18:59 | 28.67900 | 49.04722 | 34914 ft | 478 kts | 130° |
| 2026-05-08 18:59 | 28.64642 | 49.11330 | 34919 ft | 480 kts | 130° |
| 2026-05-08 19:00 | 28.61375 | 49.17956 | 34917 ft | 480 kts | 130° |
| 2026-05-08 19:00 | 28.58115 | 49.24576 | 34925 ft | 480 kts | 127° |
| 2026-05-08 19:01 | 28.55114 | 49.31383 | 34923 ft | 481 kts | 127° |
| 2026-05-08 19:01 | 28.53422 | 49.34597 | 34933 ft | 469 kts | 136° |
| 2026-05-08 19:01 | 28.51416 | 49.37474 | 34929 ft | 462 kts | 141° |
| 2026-05-08 19:02 | 28.47291 | 49.43012 | 34929 ft | 462 kts | 140° |
| 2026-05-08 19:02 | 28.43163 | 49.48613 | 34918 ft | 462 kts | 140° |
| 2026-05-08 19:03 | 28.39016 | 49.54193 | 34910 ft | 462 kts | 140° |
| 2026-05-08 19:03 | 28.34877 | 49.59777 | 34911 ft | 462 kts | 140° |
| 2026-05-08 19:04 | 28.30730 | 49.65352 | 34911 ft | 462 kts | 140° |
| 2026-05-08 19:04 | 28.26568 | 49.70942 | 34923 ft | 465 kts | 140° |
| 2026-05-08 19:05 | 28.22333 | 49.76452 | 34923 ft | 457 kts | 147° |
| 2026-05-08 19:05 | 28.19922 | 49.78735 | 34933 ft | 446 kts | 154° |
| 2026-05-08 19:05 | 28.17385 | 49.80752 | 34934 ft | 446 kts | 155° |
| 2026-05-08 19:06 | 28.12308 | 49.84802 | 34914 ft | 447 kts | 154° |
| 2026-05-08 19:06 | 28.07224 | 49.88853 | 34916 ft | 447 kts | 155° |
| 2026-05-08 19:07 | 28.02135 | 49.92901 | 34921 ft | 447 kts | 154° |
| 2026-05-08 19:07 | 27.97039 | 49.96951 | 34921 ft | 447 kts | 155° |
| 2026-05-08 19:08 | 27.91932 | 50.01003 | 34912 ft | 449 kts | 154° |
| 2026-05-08 19:08 | 27.86827 | 50.05052 | 34911 ft | 448 kts | 154° |
| 2026-05-08 19:09 | 27.81759 | 50.09064 | 34905 ft | 448 kts | 154° |
| 2026-05-08 19:09 | 27.76661 | 50.13097 | 34908 ft | 448 kts | 154° |
| 2026-05-08 19:10 | 27.71545 | 50.17139 | 34908 ft | 449 kts | 154° |
| 2026-05-08 19:10 | 27.66428 | 50.21177 | 34910 ft | 449 kts | 154° |
| 2026-05-08 19:11 | 27.61302 | 50.25217 | 34905 ft | 449 kts | 154° |
| 2026-05-08 19:11 | 27.56174 | 50.29253 | 34915 ft | 450 kts | 154° |
| 2026-05-08 19:12 | 27.51031 | 50.33298 | 34909 ft | 451 kts | 154° |
| 2026-05-08 19:12 | 27.45898 | 50.37330 | 34909 ft | 450 kts | 154° |
| 2026-05-08 19:13 | 27.40762 | 50.41359 | 34908 ft | 450 kts | 154° |
| 2026-05-08 19:13 | 27.35629 | 50.45381 | 34905 ft | 450 kts | 154° |
| 2026-05-08 19:14 | 27.30490 | 50.49403 | 34907 ft | 450 kts | 154° |
| 2026-05-08 19:14 | 27.25354 | 50.53419 | 34901 ft | 449 kts | 154° |
| 2026-05-08 19:15 | 27.20216 | 50.57431 | 34905 ft | 450 kts | 154° |
| 2026-05-08 19:15 | 27.15117 | 50.61409 | 34902 ft | 450 kts | 154° |
| 2026-05-08 19:16 | 27.09971 | 50.65418 | 34898 ft | 450 kts | 154° |
| 2026-05-08 19:16 | 27.05236 | 50.70153 | 34904 ft | 468 kts | 137° |
| 2026-05-08 19:17 | 27.01224 | 50.75902 | 34905 ft | 467 kts | 137° |
| 2026-05-08 19:17 | 26.97175 | 50.81590 | 34908 ft | 467 kts | 137° |
| 2026-05-08 19:18 | 26.93147 | 50.87297 | 34903 ft | 466 kts | 137° |
| 2026-05-08 19:18 | 26.89111 | 50.92982 | 34874 ft | 466 kts | 137° |
| 2026-05-08 19:19 | 26.85073 | 50.98673 | 34881 ft | 467 kts | 137° |
| 2026-05-08 19:19 | 26.81033 | 51.04357 | 34882 ft | 467 kts | 137° |
| 2026-05-08 19:20 | 26.77312 | 51.10381 | 34895 ft | 482 kts | 122° |
| 2026-05-08 19:20 | 26.74953 | 51.17479 | 34888 ft | 488 kts | 117° |
| 2026-05-08 19:21 | 26.72700 | 51.24571 | 34874 ft | 486 kts | 117° |
| 2026-05-08 19:21 | 26.70407 | 51.31692 | 34874 ft | 487 kts | 117° |
| 2026-05-08 19:22 | 26.68126 | 51.38829 | 34871 ft | 487 kts | 117° |
| 2026-05-08 19:22 | 26.65828 | 51.45958 | 34868 ft | 488 kts | 117° |
| 2026-05-08 19:23 | 26.63532 | 51.53098 | 34871 ft | 488 kts | 117° |
| 2026-05-08 19:23 | 26.61228 | 51.60228 | 34867 ft | 489 kts | 117° |
| 2026-05-08 19:24 | 26.58920 | 51.67371 | 34867 ft | 489 kts | 117° |
| 2026-05-08 19:24 | 26.56605 | 51.74511 | 34865 ft | 489 kts | 117° |
| 2026-05-08 19:25 | 26.54288 | 51.81649 | 34848 ft | 488 kts | 116° |
| 2026-05-08 19:25 | 26.51969 | 51.88777 | 34858 ft | 488 kts | 117° |
| 2026-05-08 19:26 | 26.49597 | 51.95881 | 34859 ft | 488 kts | 117° |
| 2026-05-08 19:26 | 26.47237 | 52.02986 | 34854 ft | 488 kts | 117° |
| 2026-05-08 19:27 | 26.44869 | 52.10086 | 34863 ft | 488 kts | 117° |
| 2026-05-08 19:27 | 26.42495 | 52.17188 | 34859 ft | 489 kts | 117° |
| 2026-05-08 19:28 | 26.40121 | 52.24289 | 34855 ft | 488 kts | 117° |
| 2026-05-08 19:28 | 26.37742 | 52.31379 | 34830 ft | 489 kts | 117° |
| 2026-05-08 19:29 | 26.35372 | 52.38414 | 34845 ft | 487 kts | 119° |
| 2026-05-08 19:29 | 26.32716 | 52.45345 | 34845 ft | 486 kts | 119° |
| 2026-05-08 19:30 | 26.30063 | 52.52276 | 34850 ft | 486 kts | 119° |
| 2026-05-08 19:30 | 26.27405 | 52.59190 | 34846 ft | 485 kts | 119° |
| 2026-05-08 19:31 | 26.24749 | 52.66094 | 34844 ft | 484 kts | 119° |
| 2026-05-08 19:31 | 26.22104 | 52.72987 | 34833 ft | 484 kts | 119° |
| 2026-05-08 19:32 | 26.19473 | 52.79879 | 34831 ft | 483 kts | 119° |
| 2026-05-08 19:32 | 26.16828 | 52.86761 | 34829 ft | 484 kts | 119° |
| 2026-05-08 19:33 | 26.14184 | 52.93650 | 34835 ft | 484 kts | 119° |
| 2026-05-08 19:33 | 26.11537 | 53.00524 | 34832 ft | 483 kts | 119° |
| 2026-05-08 19:34 | 26.08987 | 53.07453 | 34831 ft | 484 kts | 117° |
| 2026-05-08 19:34 | 26.06470 | 53.14395 | 34833 ft | 484 kts | 117° |
| 2026-05-08 19:35 | 26.03981 | 53.21360 | 34834 ft | 484 kts | 117° |
| 2026-05-08 19:35 | 26.01478 | 53.28296 | 34824 ft | 484 kts | 117° |
| 2026-05-08 19:36 | 25.98977 | 53.35239 | 34825 ft | 484 kts | 117° |
| 2026-05-08 19:36 | 25.96489 | 53.42128 | 34823 ft | 483 kts | 117° |
| 2026-05-08 19:37 | 25.93983 | 53.49050 | 34820 ft | 483 kts | 117° |
| 2026-05-08 19:37 | 25.91471 | 53.55983 | 34814 ft | 484 kts | 117° |
| 2026-05-08 19:38 | 25.88948 | 53.62929 | 34819 ft | 485 kts | 117° |
| 2026-05-08 19:38 | 25.86427 | 53.69863 | 34595 ft | 486 kts | 117° |
| 2026-05-08 19:38 | 25.85156 | 53.73362 | 33805 ft | 490 kts | 116° |
| 2026-05-08 19:39 | 25.83935 | 53.76896 | 33019 ft | 490 kts | 115° |
| 2026-05-08 19:39 | 25.82743 | 53.80442 | 32235 ft | 490 kts | 115° |
| 2026-05-08 19:39 | 25.81523 | 53.83972 | 31438 ft | 490 kts | 116° |
| 2026-05-08 19:39 | 25.80274 | 53.87496 | 30606 ft | 491 kts | 116° |
| 2026-05-08 19:40 | 25.79033 | 53.91036 | 29719 ft | 493 kts | 115° |
| 2026-05-08 19:40 | 25.78220 | 53.93391 | 29114 ft | 493 kts | 115° |
| 2026-05-08 19:40 | 25.76996 | 53.96938 | 28196 ft | 492 kts | 115° |
| 2026-05-08 19:40 | 25.75762 | 54.00472 | 27236 ft | 491 kts | 114° |
| 2026-05-08 19:41 | 25.74636 | 54.04055 | 26238 ft | 493 kts | 112° |
| 2026-05-08 19:41 | 25.73524 | 54.07650 | 25214 ft | 493 kts | 112° |
| 2026-05-08 19:41 | 25.72423 | 54.11200 | 24216 ft | 480 kts | 112° |
| 2026-05-08 19:41 | 25.71354 | 54.14656 | 23243 ft | 467 kts | 112° |
| 2026-05-08 19:42 | 25.70315 | 54.18010 | 22317 ft | 452 kts | 112° |
| 2026-05-08 19:42 | 25.69310 | 54.21248 | 21448 ft | 437 kts | 111° |
| 2026-05-08 19:42 | 25.68318 | 54.24430 | 20623 ft | 439 kts | 111° |
| 2026-05-08 19:42 | 25.67326 | 54.27613 | 19800 ft | 430 kts | 111° |
| 2026-05-08 19:43 | 25.66370 | 54.30701 | 19026 ft | 421 kts | 111° |
| 2026-05-08 19:43 | 25.65417 | 54.33761 | 18268 ft | 418 kts | 110° |
| 2026-05-08 19:43 | 25.64483 | 54.36753 | 17490 ft | 403 kts | 110° |
| 2026-05-08 19:43 | 25.63574 | 54.39671 | 16792 ft | 402 kts | 111° |
| 2026-05-08 19:44 | 25.62648 | 54.42631 | 16091 ft | 407 kts | 111° |
| 2026-05-08 19:44 | 25.61740 | 54.45541 | 15418 ft | 392 kts | 111° |
| 2026-05-08 19:44 | 25.60868 | 54.48342 | 14783 ft | 376 kts | 112° |
| 2026-05-08 19:44 | 25.60026 | 54.51031 | 14170 ft | 363 kts | 112° |
| 2026-05-08 19:45 | 25.59211 | 54.53627 | 13595 ft | 352 kts | 112° |
| 2026-05-08 19:45 | 25.58420 | 54.56149 | 13013 ft | 341 kts | 112° |
| 2026-05-08 19:45 | 25.57656 | 54.58589 | 12832 ft | 330 kts | 112° |
| 2026-05-08 19:45 | 25.56917 | 54.60947 | 12760 ft | 318 kts | 112° |
| 2026-05-08 19:46 | 25.56204 | 54.63217 | 12693 ft | 307 kts | 112° |
| 2026-05-08 19:46 | 25.55513 | 54.65414 | 12602 ft | 298 kts | 112° |
| 2026-05-08 19:46 | 25.54193 | 54.69611 | 12397 ft | 283 kts | 113° |
| 2026-05-08 19:47 | 25.53550 | 54.71653 | 12293 ft | 279 kts | 113° |
| 2026-05-08 19:47 | 25.52909 | 54.73685 | 12200 ft | 283 kts | 113° |
| 2026-05-08 19:47 | 25.52257 | 54.75750 | 12109 ft | 284 kts | 112° |
| 2026-05-08 19:47 | 25.51613 | 54.77798 | 12006 ft | 280 kts | 112° |
| 2026-05-08 19:48 | 25.50849 | 54.79784 | 12010 ft | 283 kts | 117° |
| 2026-05-08 19:48 | 25.50077 | 54.81793 | 12017 ft | 285 kts | 116° |
| 2026-05-08 19:48 | 25.49313 | 54.83817 | 12016 ft | 285 kts | 116° |
| 2026-05-08 19:48 | 25.48530 | 54.85834 | 11976 ft | 286 kts | 116° |
| 2026-05-08 19:49 | 25.47734 | 54.87862 | 11770 ft | 287 kts | 116° |
| 2026-05-08 19:49 | 25.46947 | 54.89881 | 11572 ft | 285 kts | 116° |
| 2026-05-08 19:49 | 25.46168 | 54.91886 | 11377 ft | 283 kts | 116° |
| 2026-05-08 19:49 | 25.45390 | 54.93883 | 11188 ft | 283 kts | 116° |
| 2026-05-08 19:50 | 25.44600 | 54.95879 | 11010 ft | 282 kts | 120° |
| 2026-05-08 19:50 | 25.43632 | 54.97736 | 11004 ft | 280 kts | 123° |
| 2026-05-08 19:50 | 25.42668 | 54.99611 | 11010 ft | 281 kts | 122° |
| 2026-05-08 19:50 | 25.41704 | 55.01492 | 11010 ft | 281 kts | 122° |
| 2026-05-08 19:51 | 25.40732 | 55.03367 | 11013 ft | 281 kts | 122° |
| 2026-05-08 19:51 | 25.39757 | 55.05239 | 11013 ft | 281 kts | 122° |
| 2026-05-08 19:51 | 25.38778 | 55.07124 | 10852 ft | 284 kts | 122° |
| 2026-05-08 19:51 | 25.37800 | 55.09011 | 10660 ft | 282 kts | 122° |
| 2026-05-08 19:52 | 25.36826 | 55.10886 | 10475 ft | 281 kts | 122° |
| 2026-05-08 19:52 | 25.36107 | 55.12888 | 10285 ft | 284 kts | 99° |
| 2026-05-08 19:52 | 25.35992 | 55.15070 | 10112 ft | 284 kts | 92° |
| 2026-05-08 19:52 | 25.35972 | 55.17264 | 9918 ft | 285 kts | 92° |
| 2026-05-08 19:53 | 25.35947 | 55.19446 | 9720 ft | 283 kts | 92° |
| 2026-05-08 19:53 | 25.35898 | 55.21610 | 9525 ft | 280 kts | 93° |
| 2026-05-08 19:53 | 25.35846 | 55.23755 | 9328 ft | 278 kts | 92° |
| 2026-05-08 19:53 | 25.35801 | 55.25876 | 9138 ft | 275 kts | 92° |
| 2026-05-08 19:54 | 25.35759 | 55.27986 | 8944 ft | 275 kts | 92° |
| 2026-05-08 19:54 | 25.35714 | 55.30093 | 8603 ft | 280 kts | 92° |
| 2026-05-08 19:54 | 25.35592 | 55.32276 | 8254 ft | 282 kts | 104° |
| 2026-05-08 19:54 | 25.34817 | 55.34244 | 7931 ft | 281 kts | 122° |
| 2026-05-08 19:55 | 25.33776 | 55.36091 | 7489 ft | 282 kts | 124° |
| 2026-05-08 19:55 | 25.32728 | 55.37904 | 7041 ft | 278 kts | 123° |
| 2026-05-08 19:55 | 25.31720 | 55.39708 | 6600 ft | 274 kts | 122° |
| 2026-05-08 19:55 | 25.30746 | 55.41477 | 6166 ft | 272 kts | 122° |
| 2026-05-08 19:56 | 25.29749 | 55.43274 | 5702 ft | 270 kts | 122° |
| 2026-05-08 19:56 | 25.28779 | 55.45011 | 5250 ft | 268 kts | 122° |
| 2026-05-08 19:56 | 25.27802 | 55.46761 | 4803 ft | 267 kts | 122° |
| 2026-05-08 19:56 | 25.26831 | 55.48503 | 4500 ft | 260 kts | 122° |
| 2026-05-08 19:57 | 25.25915 | 55.50152 | 4592 ft | 247 kts | 122° |
| 2026-05-08 19:57 | 25.25016 | 55.51770 | 4461 ft | 250 kts | 122° |
| 2026-05-08 19:57 | 25.24108 | 55.53399 | 4207 ft | 249 kts | 122° |
| 2026-05-08 19:57 | 25.23202 | 55.55028 | 3954 ft | 248 kts | 122° |
| 2026-05-08 19:58 | 25.22297 | 55.56656 | 3709 ft | 250 kts | 122° |
| 2026-05-08 19:58 | 25.21389 | 55.58287 | 3468 ft | 250 kts | 122° |
| 2026-05-08 19:58 | 25.20479 | 55.59919 | 3236 ft | 250 kts | 122° |
| 2026-05-08 19:58 | 25.19480 | 55.61493 | 3000 ft | 250 kts | 140° |
| 2026-05-08 19:59 | 25.18007 | 55.62454 | 2782 ft | 246 kts | 161° |
| 2026-05-08 19:59 | 25.16429 | 55.63178 | 2555 ft | 245 kts | 163° |
| 2026-05-08 19:59 | 25.14804 | 55.63381 | 2335 ft | 231 kts | 196° |
| 2026-05-08 19:59 | 25.13431 | 55.62643 | 2116 ft | 215 kts | 230° |
| 2026-05-08 20:00 | 25.12737 | 55.61294 | 2026 ft | 201 kts | 257° |
| 2026-05-08 20:00 | 25.12595 | 55.59785 | 2038 ft | 200 kts | 283° |
| 2026-05-08 20:00 | 25.13145 | 55.58419 | 2046 ft | 197 kts | 299° |
| 2026-05-08 20:00 | 25.13830 | 55.57122 | 2037 ft | 198 kts | 300° |
| 2026-05-08 20:01 | 25.14544 | 55.55824 | 2018 ft | 196 kts | 300° |
| 2026-05-08 20:01 | 25.15254 | 55.54539 | 2017 ft | 196 kts | 300° |
| 2026-05-08 20:01 | 25.15966 | 55.53253 | 2017 ft | 196 kts | 300° |
| 2026-05-08 20:01 | 25.16674 | 55.51971 | 2015 ft | 191 kts | 301° |
| 2026-05-08 20:02 | 25.17309 | 55.50833 | 1982 ft | 157 kts | 301° |